Time;durP1;ratioP1;P1;durP2;ratioP2;P2;SDS_P1;SDS_P2;PMS_P1;PMS_P2;Temp;Humidity;BMP_temperature;BMP_pressure;BME280_temperature;BME280_humidity;BME280_pressure;Samples;Min_cycle;Max_cycle;Signal;HPM_P1;HPM_P2
2023/07/25 00:01:04;;;;;;;5.63;2.60;;;14.10;99.90;;;;;;5035730;28;20193;-77
2023/07/25 00:03:31;;;;;;;3.00;2.60;;;14.00;99.90;;;;;;5030844;28;20229;-77
2023/07/25 00:06:03;;;;;;;4.30;2.70;;;14.00;99.90;;;;;;5026725;28;20206;-77
2023/07/25 00:08:31;;;;;;;5.87;2.93;;;14.00;99.90;;;;;;5046739;28;20292;-77
2023/07/25 00:10:59;;;;;;;10.53;3.30;;;14.00;99.90;;;;;;5047395;28;20696;-78
2023/07/25 00:13:27;;;;;;;3.23;2.47;;;13.90;99.90;;;;;;5046680;28;20208;-76
2023/07/25 00:15:54;;;;;;;3.97;2.90;;;13.90;99.90;;;;;;5046721;28;20197;-77
2023/07/25 00:18:21;;;;;;;5.43;3.00;;;13.90;99.90;;;;;;5047150;28;20251;-77
2023/07/25 00:20:48;;;;;;;5.57;2.70;;;13.90;99.90;;;;;;5047178;28;20581;-78
2023/07/25 00:23:15;;;;;;;5.57;2.77;;;13.90;99.90;;;;;;5045381;28;20614;-77
2023/07/25 00:25:41;;;;;;;6.03;3.17;;;13.80;99.90;;;;;;5025829;28;20230;-77
2023/07/25 00:28:08;;;;;;;6.87;2.73;;;13.80;99.90;;;;;;5042800;28;20217;-77
2023/07/25 00:30:35;;;;;;;5.00;2.50;;;13.80;99.90;;;;;;5038354;28;20639;-77
2023/07/25 00:33:02;;;;;;;4.60;3.03;;;13.80;99.90;;;;;;5046935;28;20635;-77
2023/07/25 00:35:29;;;;;;;4.87;2.60;;;13.70;99.90;;;;;;5046561;28;20280;-77
2023/07/25 00:37:56;;;;;;;6.70;2.83;;;13.80;99.90;;;;;;5046676;28;20684;-77
2023/07/25 00:40:22;;;;;;;3.57;2.43;;;13.80;99.90;;;;;;5045847;28;20229;-78
2023/07/25 00:42:56;;;;;;;4.13;2.40;;;13.80;99.90;;;;;;5046660;28;20217;-78
2023/07/25 00:45:24;;;;;;;6.60;2.60;;;13.70;99.90;;;;;;5046262;28;20290;-76
2023/07/25 00:47:52;;;;;;;6.23;2.63;;;13.70;99.90;;;;;;5046148;28;20423;-76
2023/07/25 00:50:19;;;;;;;7.43;2.53;;;13.70;99.90;;;;;;5046450;28;20608;-76
2023/07/25 00:52:47;;;;;;;6.77;2.47;;;13.70;99.90;;;;;;5030985;28;20202;-77
2023/07/25 00:55:13;;;;;;;9.73;2.50;;;13.70;99.90;;;;;;5027000;28;20245;-77
2023/07/25 00:57:40;;;;;;;3.77;2.63;;;13.60;99.90;;;;;;5040556;28;20214;-77
2023/07/25 01:00:07;;;;;;;3.70;2.50;;;13.60;99.90;;;;;;5046274;28;20193;-77
2023/07/25 01:02:34;;;;;;;6.20;2.90;;;13.60;99.90;;;;;;5046218;28;20221;-79
2023/07/25 01:05:01;;;;;;;3.70;2.70;;;13.60;99.90;;;;;;5046481;28;20628;-78
2023/07/25 01:07:30;;;;;;;7.83;2.70;;;13.60;99.90;;;;;;5047128;28;20467;-77
2023/07/25 01:09:56;;;;;;;5.33;2.63;;;13.60;99.90;;;;;;5045993;28;20205;-79
2023/07/25 01:12:24;;;;;;;8.03;2.73;;;13.50;99.90;;;;;;5046491;28;20213;-77
2023/07/25 01:14:51;;;;;;;4.93;2.60;;;13.50;99.90;;;;;;5046736;28;20288;-78
2023/07/25 01:17:22;;;;;;;4.63;2.90;;;13.40;99.90;;;;;;5046253;28;20201;-79
2023/07/25 01:19:49;;;;;;;3.90;2.90;;;13.40;99.90;;;;;;5045952;28;20683;-78
2023/07/25 01:22:18;;;;;;;5.53;3.10;;;13.30;99.90;;;;;;5054655;28;20200;-78
2023/07/25 01:24:46;;;;;;;6.13;3.10;;;13.20;99.90;;;;;;5046453;28;20217;-77
2023/07/25 01:27:14;;;;;;;6.47;2.90;;;13.20;99.90;;;;;;5046809;28;20696;-77
2023/07/25 01:29:41;;;;;;;8.30;3.10;;;13.20;99.90;;;;;;5047337;28;20197;-77
2023/07/25 01:32:09;;;;;;;8.57;3.23;;;13.10;99.90;;;;;;5046111;28;20193;-78
2023/07/25 01:34:35;;;;;;;10.07;3.50;;;13.10;99.90;;;;;;5046153;28;20205;-77
2023/07/25 01:37:03;;;;;;;6.20;3.20;;;13.10;99.90;;;;;;5046468;28;20225;-77
2023/07/25 01:39:30;;;;;;;5.80;3.10;;;13.10;99.90;;;;;;5046656;28;20197;-78
2023/07/25 01:41:56;;;;;;;5.83;3.13;;;13.00;99.90;;;;;;5044521;28;20213;-78
2023/07/25 01:44:23;;;;;;;4.43;3.17;;;13.00;99.90;;;;;;5046655;28;20602;-80
2023/07/25 01:46:50;;;;;;;5.27;3.40;;;12.90;99.90;;;;;;5025365;28;20263;-78
2023/07/25 01:49:17;;;;;;;8.53;3.30;;;12.90;99.90;;;;;;5044447;28;20657;-77
2023/07/25 01:51:44;;;;;;;5.57;3.37;;;12.80;99.90;;;;;;5045951;28;20197;-78
2023/07/25 01:54:11;;;;;;;7.53;3.60;;;12.80;99.90;;;;;;5046069;28;20259;-77
2023/07/25 01:56:37;;;;;;;6.17;3.30;;;12.70;99.90;;;;;;5046394;28;20251;-77
2023/07/25 01:59:05;;;;;;;4.77;3.30;;;12.80;99.90;;;;;;5046715;28;20201;-78
2023/07/25 02:01:32;;;;;;;8.73;4.13;;;12.70;99.90;;;;;;5028467;28;20197;-77
2023/07/25 02:03:59;;;;;;;6.80;3.53;;;12.80;99.90;;;;;;5045818;28;20271;-78
2023/07/25 02:06:26;;;;;;;4.70;3.53;;;12.70;99.90;;;;;;5047113;28;20209;-76
2023/07/25 02:08:53;;;;;;;6.83;3.67;;;12.80;99.90;;;;;;5046101;28;20250;-78
2023/07/25 02:11:20;;;;;;;7.03;4.13;;;12.70;99.90;;;;;;5046564;28;20217;-78
2023/07/25 02:13:47;;;;;;;9.17;3.53;;;12.70;99.90;;;;;;5046855;28;20266;-77
2023/07/25 02:16:13;;;;;;;7.37;3.63;;;12.70;99.90;;;;;;5045673;28;20223;-77
2023/07/25 02:18:40;;;;;;;6.50;3.77;;;12.60;99.90;;;;;;5045810;28;20209;-78
2023/07/25 02:21:07;;;;;;;5.47;3.93;;;12.60;99.90;;;;;;5049464;28;20197;-78
2023/07/25 02:23:34;;;;;;;5.93;3.80;;;12.60;99.90;;;;;;5055292;28;20687;-79
2023/07/25 02:26:01;;;;;;;8.57;4.30;;;12.60;99.90;;;;;;5045143;28;20238;-78
2023/07/25 02:28:28;;;;;;;7.03;4.80;;;12.60;99.90;;;;;;5045548;28;20312;-77
2023/07/25 02:30:54;;;;;;;8.27;3.80;;;12.50;99.90;;;;;;5045774;28;20205;-77
2023/07/25 02:33:21;;;;;;;9.30;4.80;;;12.50;99.90;;;;;;5045165;28;20201;-77
2023/07/25 02:35:48;;;;;;;7.40;4.70;;;12.50;99.90;;;;;;5045755;28;20266;-78
2023/07/25 02:38:15;;;;;;;9.67;4.37;;;12.50;99.90;;;;;;5045763;28;20247;-77
2023/07/25 02:40:43;;;;;;;8.30;4.47;;;12.50;99.90;;;;;;5044972;28;20198;-78
2023/07/25 02:43:10;;;;;;;8.73;4.60;;;12.50;99.90;;;;;;5046445;28;20240;-77
2023/07/25 02:45:37;;;;;;;9.03;4.43;;;12.40;99.90;;;;;;5046540;28;20733;-76
2023/07/25 02:48:04;;;;;;;9.00;4.57;;;12.40;99.90;;;;;;5028225;28;20232;-79
2023/07/25 02:50:31;;;;;;;6.50;4.80;;;12.40;99.90;;;;;;5048836;28;20251;-77
2023/07/25 02:52:58;;;;;;;8.60;4.53;;;12.40;99.90;;;;;;5041199;28;20193;-77
2023/07/25 02:55:25;;;;;;;10.17;4.47;;;12.40;99.90;;;;;;5048733;28;20205;-78
2023/07/25 02:57:52;;;;;;;5.97;4.17;;;12.40;99.90;;;;;;5049514;28;20213;-77
2023/07/25 03:00:19;;;;;;;8.13;4.53;;;12.30;99.90;;;;;;5049294;28;20247;-78
2023/07/25 03:02:46;;;;;;;8.23;3.83;;;12.30;99.90;;;;;;5048185;28;20763;-78
2023/07/25 03:05:15;;;;;;;8.63;4.43;;;12.40;99.90;;;;;;5048706;28;20719;-78
2023/07/25 03:07:42;;;;;;;8.00;4.23;;;12.30;99.90;;;;;;5049266;28;20201;-78
2023/07/25 03:10:09;;;;;;;8.73;4.27;;;12.30;99.90;;;;;;5049031;28;20204;-78
2023/07/25 03:12:36;;;;;;;5.00;3.57;;;12.30;99.90;;;;;;5048720;28;20215;-78
2023/07/25 03:15:03;;;;;;;7.17;4.10;;;12.40;99.90;;;;;;5048841;28;20200;-78
2023/07/25 03:17:30;;;;;;;7.10;5.00;;;12.20;99.90;;;;;;5048346;28;20704;-79
2023/07/25 03:19:57;;;;;;;8.23;4.40;;;12.20;99.90;;;;;;5048668;28;20201;-79
2023/07/25 03:22:24;;;;;;;9.67;4.83;;;12.20;99.90;;;;;;5049208;28;20243;-76
2023/07/25 03:24:51;;;;;;;7.20;4.37;;;12.20;99.90;;;;;;5025923;28;20228;-79
2023/07/25 03:27:18;;;;;;;8.00;5.27;;;12.10;99.90;;;;;;5028489;28;20626;-78
2023/07/25 03:29:45;;;;;;;9.63;4.70;;;12.10;99.90;;;;;;5048717;28;20197;-77
2023/07/25 03:32:12;;;;;;;7.80;4.57;;;12.10;99.90;;;;;;5048591;28;20654;-77
2023/07/25 03:34:39;;;;;;;10.10;4.87;;;12.10;99.90;;;;;;5026664;28;20205;-77
2023/07/25 03:37:06;;;;;;;9.20;4.80;;;12.10;99.90;;;;;;5044538;28;20201;-79
2023/07/25 03:39:33;;;;;;;7.43;4.43;;;12.10;99.90;;;;;;5047889;28;20294;-77
2023/07/25 03:42:02;;;;;;;10.90;5.43;;;12.10;99.90;;;;;;5048028;28;20616;-76
2023/07/25 03:44:28;;;;;;;8.07;4.33;;;12.10;99.90;;;;;;5029433;28;20605;-77
2023/07/25 03:46:55;;;;;;;11.27;5.17;;;12.10;99.90;;;;;;5048140;28;20220;-77
2023/07/25 03:49:22;;;;;;;8.47;4.87;;;12.10;99.90;;;;;;5048144;28;20212;-77
2023/07/25 03:51:49;;;;;;;13.73;5.27;;;12.10;99.90;;;;;;5044653;28;20738;-78
2023/07/25 03:54:17;;;;;;;13.33;5.10;;;12.10;99.90;;;;;;5048085;28;20292;-78
2023/07/25 03:56:44;;;;;;;8.63;4.77;;;12.30;99.90;;;;;;5047321;28;20263;-77
2023/07/25 03:59:11;;;;;;;10.33;4.83;;;12.20;99.90;;;;;;5026810;28;20268;-79
2023/07/25 04:01:38;;;;;;;6.80;4.57;;;12.20;99.90;;;;;;5047717;28;20217;-78
2023/07/25 04:04:05;;;;;;;6.77;4.13;;;12.30;99.90;;;;;;5047170;28;20236;-78
2023/07/25 04:06:32;;;;;;;8.17;4.73;;;12.30;99.90;;;;;;5046874;28;20227;-79
2023/07/25 04:08:59;;;;;;;8.87;4.73;;;12.30;99.90;;;;;;5025918;28;20661;-77
2023/07/25 04:11:26;;;;;;;9.83;4.23;;;12.30;99.90;;;;;;5046007;28;20220;-76
2023/07/25 04:13:52;;;;;;;8.60;4.57;;;12.40;99.90;;;;;;5047489;28;20295;-78
2023/07/25 04:16:19;;;;;;;9.27;4.00;;;12.40;99.90;;;;;;5046700;28;20259;-77
2023/07/25 04:18:46;;;;;;;8.87;4.97;;;12.50;99.90;;;;;;5046503;28;20803;-78
2023/07/25 04:21:13;;;;;;;10.00;4.47;;;12.60;99.90;;;;;;5051454;28;20611;-76
2023/07/25 04:23:41;;;;;;;7.93;4.37;;;12.60;99.90;;;;;;5045719;28;20281;-77
2023/07/25 04:26:07;;;;;;;8.00;3.73;;;12.70;99.90;;;;;;5048947;28;20217;-77
2023/07/25 04:28:34;;;;;;;10.60;3.93;;;12.70;99.90;;;;;;5045939;28;20612;-76
2023/07/25 04:31:01;;;;;;;7.43;3.80;;;12.80;99.90;;;;;;5045772;28;20692;-78
2023/07/25 04:33:28;;;;;;;6.40;2.87;;;12.90;99.90;;;;;;5047404;28;20190;-78
2023/07/25 04:35:55;;;;;;;7.60;3.67;;;;;;;;;;5047082;28;20209;-76
2023/07/25 04:38:22;;;;;;;6.70;3.03;;;13.00;99.90;;;;;;5027865;28;20197;-77
2023/07/25 04:40:49;;;;;;;5.63;3.20;;;13.00;99.90;;;;;;5025776;28;20251;-77
2023/07/25 04:43:15;;;;;;;4.77;3.47;;;13.20;99.90;;;;;;5043998;28;20209;-77
2023/07/25 04:45:42;;;;;;;5.67;2.80;;;13.20;99.90;;;;;;5046561;28;20254;-76
2023/07/25 04:48:09;;;;;;;5.00;3.37;;;13.20;99.90;;;;;;5025223;28;20674;-77
2023/07/25 04:50:36;;;;;;;7.17;3.30;;;13.30;99.90;;;;;;5025389;28;20267;-77
2023/07/25 04:53:03;;;;;;;7.53;3.10;;;13.30;99.90;;;;;;5035947;28;20225;-77
2023/07/25 04:55:31;;;;;;;6.00;3.10;;;13.30;99.90;;;;;;5043504;28;20717;-76
2023/07/25 04:57:58;;;;;;;10.97;3.07;;;13.40;99.90;;;;;;5046565;28;20217;-77
2023/07/25 05:00:26;;;;;;;6.80;3.17;;;13.50;99.90;;;;;;5041184;28;20611;-77
2023/07/25 05:02:56;;;;;;;5.47;3.07;;;13.60;99.90;;;;;;5047104;28;20233;-76
2023/07/25 05:05:23;;;;;;;6.17;2.90;;;13.60;99.90;;;;;;5040128;28;20236;-77
2023/07/25 05:07:50;;;;;;;3.53;2.83;;;13.60;99.90;;;;;;5048335;28;20205;-78
2023/07/25 05:10:17;;;;;;;5.60;3.30;;;13.60;99.90;;;;;;5045754;28;20201;-77
2023/07/25 05:12:43;;;;;;;7.07;3.30;;;13.80;99.90;;;;;;5048512;28;20610;-77
2023/07/25 05:15:11;;;;;;;6.07;2.77;;;13.80;99.90;;;;;;5047771;28;20193;-78
2023/07/25 05:17:37;;;;;;;3.30;2.30;;;13.90;99.90;;;;;;5029098;28;20197;-77
2023/07/25 05:20:05;;;;;;;3.43;2.57;;;13.90;99.90;;;;;;5039038;28;20216;-78
2023/07/25 05:22:32;;;;;;;4.23;2.60;;;14.20;99.90;;;;;;5062256;28;20254;-77
2023/07/25 05:24:59;;;;;;;4.03;2.37;;;14.30;99.90;;;;;;5053676;28;20197;-79
2023/07/25 05:27:25;;;;;;;6.80;2.67;;;14.30;99.90;;;;;;5048601;28;20288;-78
2023/07/25 05:29:52;;;;;;;5.33;2.83;;;14.40;99.90;;;;;;5046242;28;20194;-81
2023/07/25 05:32:21;;;;;;;4.60;2.50;;;14.50;99.90;;;;;;5052372;28;20209;-78
2023/07/25 05:34:48;;;;;;;5.40;2.70;;;14.60;99.90;;;;;;5043735;28;20716;-78
2023/07/25 05:37:18;;;;;;;4.57;3.07;;;14.60;99.90;;;;;;5048599;28;20587;-78
2023/07/25 05:39:45;;;;;;;5.03;2.60;;;14.70;99.90;;;;;;5053471;28;20204;-78
2023/07/25 05:42:12;;;;;;;4.27;2.50;;;14.80;99.90;;;;;;5026135;28;20425;-78
2023/07/25 05:44:38;;;;;;;3.23;2.30;;;14.80;99.90;;;;;;5055991;28;20208;-78
2023/07/25 05:47:05;;;;;;;3.93;2.40;;;14.80;99.90;;;;;;5054556;28;20231;-78
2023/07/25 05:49:32;;;;;;;5.73;2.20;;;14.90;99.90;;;;;;5040616;28;20201;-78
2023/07/25 05:51:59;;;;;;;3.27;2.33;;;14.90;99.90;;;;;;5054433;28;20200;-78
2023/07/25 05:54:27;;;;;;;3.67;2.70;;;15.00;99.90;;;;;;5052150;28;20201;-77
2023/07/25 05:56:54;;;;;;;5.40;2.63;;;14.90;99.90;;;;;;5040055;28;20244;-78
2023/07/25 05:59:20;;;;;;;4.00;2.50;;;15.00;99.90;;;;;;5052330;28;20205;-79
2023/07/25 06:01:47;;;;;;;3.47;2.47;;;15.00;99.90;;;;;;5045682;28;20252;-78
2023/07/25 06:04:15;;;;;;;9.93;2.77;;;15.00;99.90;;;;;;5046949;28;20263;-78
2023/07/25 06:06:42;;;;;;;7.30;2.67;;;15.00;99.90;;;;;;5048515;28;20228;-78
2023/07/25 06:09:09;;;;;;;3.37;2.30;;;15.10;99.90;;;;;;5058759;28;20201;-78
2023/07/25 06:11:36;;;;;;;4.87;2.40;;;15.10;99.90;;;;;;5019237;28;20221;-78
2023/07/25 06:14:03;;;;;;;4.40;2.83;;;15.10;99.90;;;;;;5045807;28;20639;-78
2023/07/25 06:16:31;;;;;;;6.60;2.77;;;15.10;99.90;;;;;;5030740;28;20223;-78
2023/07/25 06:18:57;;;;;;;3.40;2.30;;;15.10;99.90;;;;;;5046536;28;20301;-79
2023/07/25 06:21:24;;;;;;;6.67;2.73;;;15.10;99.90;;;;;;5049377;28;20598;-77
2023/07/25 06:23:51;;;;;;;4.83;2.47;;;15.10;99.90;;;;;;5049940;28;20209;-79
2023/07/25 06:26:18;;;;;;;5.83;2.70;;;14.90;99.90;;;;;;5041671;28;20244;-78
2023/07/25 06:28:45;;;;;;;6.97;2.80;;;15.00;99.90;;;;;;5054498;28;20228;-78
2023/07/25 06:31:12;;;;;;;4.07;2.20;;;14.80;99.90;;;;;;5050409;28;20213;-79
2023/07/25 06:33:39;;;;;;;4.70;2.60;;;14.80;99.90;;;;;;5051333;28;20209;-78
2023/07/25 06:36:05;;;;;;;7.27;2.57;;;14.80;99.90;;;;;;5049973;28;20251;-78
2023/07/25 06:38:32;;;;;;;4.13;2.37;;;14.80;99.90;;;;;;5049191;28;20221;-79
2023/07/25 06:40:59;;;;;;;4.73;2.30;;;14.80;99.90;;;;;;5048761;28;20212;-80
2023/07/25 06:43:26;;;;;;;3.10;2.30;;;14.70;99.90;;;;;;5048886;28;20217;-79
2023/07/25 06:45:53;;;;;;;5.63;2.20;;;14.70;99.90;;;;;;5049137;28;20283;-79
2023/07/25 06:48:20;;;;;;;3.93;2.27;;;14.70;99.90;;;;;;5049032;28;20240;-79
2023/07/25 06:50:46;;;;;;;4.53;2.17;;;14.80;99.90;;;;;;5049125;28;20246;-81
2023/07/25 06:53:13;;;;;;;2.23;1.87;;;14.80;99.90;;;;;;5049163;28;20228;-81
2023/07/25 06:55:40;;;;;;;2.87;1.80;;;15.00;99.90;;;;;;5049011;28;20217;-81
2023/07/25 06:58:07;;;;;;;3.60;1.93;;;15.00;99.90;;;;;;5049299;28;20278;-80
2023/07/25 07:00:37;;;;;;;2.83;1.93;;;15.10;99.90;;;;;;5049316;28;20921;-78
2023/07/25 07:03:05;;;;;;;2.77;1.50;;;15.20;99.90;;;;;;5048440;28;20225;-79
2023/07/25 07:05:32;;;;;;;4.50;1.70;;;15.30;99.90;;;;;;5048871;28;20202;-79
2023/07/25 07:08:03;;;;;;;4.03;1.63;;;15.30;99.90;;;;;;5049496;28;21355;-79
2023/07/25 07:10:32;;;;;;;2.53;1.80;;;15.40;99.90;;;;;;5049938;28;20255;-78
2023/07/25 07:12:59;;;;;;;3.67;1.80;;;15.50;99.90;;;;;;5028895;28;20245;-80
2023/07/25 07:15:26;;;;;;;2.80;1.80;;;15.60;99.90;;;;;;5048895;28;20673;-81
2023/07/25 07:17:53;;;;;;;3.13;1.93;;;15.50;99.90;;;;;;5051440;28;20204;-80
2023/07/25 07:20:20;;;;;;;5.00;1.80;;;15.50;99.90;;;;;;5050961;28;20483;-80
2023/07/25 07:22:47;;;;;;;2.00;1.60;;;15.50;99.90;;;;;;5066527;28;20205;-79
2023/07/25 07:25:14;;;;;;;3.77;2.20;;;15.60;99.90;;;;;;5069167;28;20211;-79
2023/07/25 07:27:41;;;;;;;4.47;2.03;;;15.70;99.90;;;;;;5069514;28;20243;-79
2023/07/25 07:30:08;;;;;;;3.10;1.50;;;15.80;99.90;;;;;;5048424;28;20304;-79
2023/07/25 07:32:35;;;;;;;6.35;1.73;;;15.90;99.90;;;;;;5068524;28;20661;-79
2023/07/25 07:35:02;;;;;;;6.85;1.90;;;16.10;99.90;;;;;;5054249;28;20205;-79
2023/07/25 07:37:29;;;;;;;4.20;1.70;;;16.20;99.90;;;;;;5050141;28;20250;-76
2023/07/25 07:39:58;;;;;;;2.13;1.60;;;16.40;99.90;;;;;;5030228;28;20194;-78
2023/07/25 07:42:25;;;;;;;5.65;1.55;;;16.60;99.90;;;;;;5049035;28;20228;-78
2023/07/25 07:44:52;;;;;;;4.45;1.63;;;16.70;99.90;;;;;;5029656;28;20202;-78
2023/07/25 07:47:19;;;;;;;1.70;1.33;;;17.10;99.90;;;;;;5048529;28;20693;-80
2023/07/25 07:49:46;;;;;;;4.45;1.20;;;17.70;99.90;;;;;;5051389;28;20638;-81
2023/07/25 07:52:13;;;;;;;2.17;1.60;;;18.80;99.90;;;;;;5051970;28;20212;-78
2023/07/25 07:54:55;;;;;;;1.48;1.00;;;19.70;99.90;;;;;;5061728;28;20227;-79
2023/07/25 07:57:22;;;;;;;3.60;1.10;;;20.80;99.90;;;;;;5068589;28;20225;-78
2023/07/25 07:59:49;;;;;;;4.25;1.40;;;21.60;99.90;;;;;;5070553;28;20201;-78
2023/07/25 08:02:16;;;;;;;2.08;1.08;;;22.10;99.90;;;;;;5048529;28;20206;-77
2023/07/25 08:04:43;;;;;;;3.03;0.80;;;22.50;99.90;;;;;;5042844;28;20611;-79
2023/07/25 08:07:10;;;;;;;4.50;1.13;;;23.00;99.90;;;;;;5051826;28;20299;-79
2023/07/25 08:09:37;;;;;;;4.45;1.50;;;23.20;99.90;;;;;;5051256;28;20721;-79
2023/07/25 08:12:05;;;;;;;3.28;1.05;;;23.10;99.90;;;;;;5051768;28;20217;-78
2023/07/25 08:14:32;;;;;;;3.22;1.10;;;23.00;99.90;;;;;;5051097;28;20197;-79
2023/07/25 08:16:59;;;;;;;3.40;1.25;;;23.30;99.90;;;;;;5033754;28;20201;-81
2023/07/25 08:19:26;;;;;;;2.78;1.10;;;23.80;99.90;;;;;;5050284;28;20243;-78
2023/07/25 08:21:54;;;;;;;2.75;1.48;;;;;;;;;;5059939;28;20288;-77
2023/07/25 08:24:21;;;;;;;1.98;0.80;;;24.90;99.90;;;;;;5051745;28;20192;-78
2023/07/25 08:26:48;;;;;;;3.70;0.80;;;25.00;99.90;;;;;;5051259;28;20311;-79
2023/07/25 08:29:15;;;;;;;3.38;1.00;;;24.70;99.90;;;;;;5068314;28;20216;-76
2023/07/25 08:31:42;;;;;;;3.45;0.95;;;24.40;99.90;;;;;;5051516;28;20216;-78
2023/07/25 08:34:08;;;;;;;5.18;1.15;;;23.70;99.90;;;;;;5068144;28;20208;-79
2023/07/25 08:36:35;;;;;;;2.22;1.08;;;23.00;99.90;;;;;;5033106;28;20209;-80
2023/07/25 08:39:02;;;;;;;3.17;1.10;;;22.30;99.90;;;;;;5048974;28;20704;-79
2023/07/25 08:41:34;;;;;;;3.90;0.90;;;21.80;99.90;;;;;;5048138;28;20287;-78
2023/07/25 08:44:02;;;;;;;3.00;1.00;;;21.50;99.90;;;;;;5048022;28;20211;-77
2023/07/25 08:46:32;;;;;;;2.78;0.90;;;21.10;99.90;;;;;;5047555;28;20224;-79
2023/07/25 08:49:05;;;;;;;2.67;1.10;;;20.80;99.90;;;;;;5047559;28;20263;-77
2023/07/25 08:51:34;;;;;;;3.13;0.90;;;20.30;99.90;;;;;;5048117;28;20208;-77
2023/07/25 08:54:16;;;;;;;2.95;1.63;;;20.10;99.90;;;;;;5047561;28;20212;-77
2023/07/25 08:56:47;;;;;;;2.55;0.93;;;19.90;99.90;;;;;;5048037;28;20261;-77
2023/07/25 08:59:14;;;;;;;4.22;1.10;;;19.80;99.90;;;;;;5047149;28;20209;-78
2023/07/25 09:01:42;;;;;;;2.90;1.00;;;19.80;99.90;;;;;;5048149;28;20204;-77
2023/07/25 09:04:10;;;;;;;1.17;0.68;;;20.30;99.90;;;;;;5047395;28;20687;-77
2023/07/25 09:06:37;;;;;;;2.22;0.85;;;21.10;99.90;;;;;;5030010;28;20225;-77
2023/07/25 09:09:05;;;;;;;2.42;0.88;;;21.50;99.90;;;;;;5047801;28;20208;-79
2023/07/25 09:11:33;;;;;;;2.08;0.75;;;21.60;99.90;;;;;;5047467;28;20391;-76
2023/07/25 09:14:01;;;;;;;3.25;0.90;;;21.70;99.90;;;;;;5047909;28;20197;-79
2023/07/25 09:16:29;;;;;;;3.25;0.80;;;21.60;99.90;;;;;;5048434;28;20196;-77
2023/07/25 09:18:56;;;;;;;1.70;0.70;;;21.40;99.90;;;;;;5047551;28;20209;-78
2023/07/25 09:21:23;;;;;;;0.98;0.50;;;21.30;99.90;;;;;;5047345;28;20589;-77
2023/07/25 09:23:58;;;;;;;2.17;0.70;;;21.60;99.90;;;;;;5046920;28;20212;-78
2023/07/25 09:26:26;;;;;;;2.63;0.80;;;21.90;99.90;;;;;;5046665;28;20247;-78
2023/07/25 09:28:58;;;;;;;1.15;0.60;;;22.30;99.90;;;;;;5047889;28;20283;-78
2023/07/25 09:31:27;;;;;;;1.73;0.68;;;22.80;99.90;;;;;;5047394;28;20212;-78
2023/07/25 09:33:57;;;;;;;2.80;0.57;;;23.20;99.90;;;;;;5030393;28;20206;-78
2023/07/25 09:36:30;;;;;;;2.55;0.60;;;23.50;99.90;;;;;;5009290;28;20206;-79
2023/07/25 09:38:58;;;;;;;0.90;0.55;;;23.70;99.90;;;;;;5041139;28;20212;-79
2023/07/25 09:41:26;;;;;;;2.08;0.70;;;23.60;99.90;;;;;;5046284;28;20213;-79
2023/07/25 09:43:59;;;;;;;0.82;0.50;;;23.60;99.90;;;;;;5047450;28;20201;-78
2023/07/25 09:46:26;;;;;;;1.45;0.70;;;23.50;99.90;;;;;;5046697;28;20227;-77
2023/07/25 09:48:53;;;;;;;2.30;0.85;;;23.50;99.90;;;;;;5046661;28;20451;-77
2023/07/25 09:51:19;;;;;;;1.13;0.57;;;23.60;99.90;;;;;;5046569;28;20406;-79
2023/07/25 09:53:51;;;;;;;2.22;0.50;;;23.60;99.90;;;;;;5046501;28;20201;-78
2023/07/25 09:56:26;;;;;;;0.88;0.52;;;23.70;99.90;;;;;;5039209;28;20185;-78
2023/07/25 09:58:54;;;;;;;1.10;0.80;;;23.80;99.90;;;;;;5053326;28;20250;-79
2023/07/25 10:01:25;;;;;;;2.88;0.60;;;23.90;99.90;;;;;;5052412;28;20669;-78
2023/07/25 10:03:52;;;;;;;1.17;0.63;;;24.10;99.90;;;;;;5052680;28;20371;-80
2023/07/25 10:06:20;;;;;;;1.65;0.55;;;24.00;99.90;;;;;;5053140;28;20323;-78
2023/07/25 10:08:47;;;;;;;1.02;0.50;;;24.00;99.90;;;;;;5036365;28;20289;-79
2023/07/25 10:11:15;;;;;;;1.27;0.50;;;23.50;99.90;;;;;;5052677;28;20232;-79
2023/07/25 10:13:42;;;;;;;2.53;0.73;;;23.40;99.90;;;;;;5053178;28;20525;-80
2023/07/25 10:16:14;;;;;;;2.97;0.70;;;23.30;99.90;;;;;;5036294;28;20197;-79
2023/07/25 10:18:41;;;;;;;1.88;0.77;;;23.00;99.90;;;;;;5053510;28;20259;-79
2023/07/25 10:21:11;;;;;;;1.40;0.60;;;23.00;99.90;;;;;;5057594;28;20563;-79
2023/07/25 10:23:39;;;;;;;1.90;0.65;;;22.90;99.90;;;;;;5048262;28;20215;-78
2023/07/25 10:26:16;;;;;;;2.42;0.75;;;23.00;99.90;;;;;;5037002;28;20304;-78
2023/07/25 10:28:43;;;;;;;2.15;0.52;;;23.20;99.90;;;;;;5041667;28;20233;-79
2023/07/25 10:31:25;;;;;;;0.47;0.45;;;23.20;99.90;;;;;;5054782;28;20754;-79
2023/07/25 10:33:58;;;;;;;2.40;0.60;;;23.20;99.90;;;;;;5034367;28;20211;-77
2023/07/25 10:36:26;;;;;;;2.30;0.70;;;23.20;99.90;;;;;;5047519;28;20529;-79
2023/07/25 10:39:05;;;;;;;0.57;0.50;;;23.20;99.90;;;;;;5056393;28;20205;-79
2023/07/25 10:41:32;;;;;;;0.50;0.50;;;23.20;99.90;;;;;;5060347;28;20303;-77
2023/07/25 10:44:01;;;;;;;1.30;0.40;;;23.00;99.90;;;;;;5075369;28;20582;-80
2023/07/25 10:46:32;;;;;;;2.28;0.73;;;22.80;99.90;;;;;;5059708;28;20198;-79
2023/07/25 10:49:01;;;;;;;0.85;0.60;;;22.90;99.90;;;;;;5067015;28;20216;-79
2023/07/25 10:51:51;;;;;;;2.42;0.80;;;23.00;99.90;;;;;;5057939;28;20560;-78
2023/07/25 10:54:24;;;;;;;1.73;0.70;;;23.30;99.90;;;;;;5067395;28;20274;-80
2023/07/25 10:57:14;;;;;;;2.00;0.70;;;23.30;99.90;;;;;;5055125;28;20281;-79
2023/07/25 11:00:07;;;;;;;1.70;0.70;;;23.30;99.90;;;;;;5050145;28;20448;-80
2023/07/25 11:02:39;;;;;;;1.75;0.77;;;23.90;99.90;;;;;;5048567;28;20244;-79
2023/07/25 11:05:12;;;;;;;2.10;0.70;;;23.80;99.90;;;;;;5056220;28;20237;-77
2023/07/25 11:07:39;;;;;;;3.28;1.90;;;23.60;99.90;;;;;;5037406;28;20233;-80
2023/07/25 11:10:07;;;;;;;2.13;0.90;;;23.30;99.90;;;;;;5061198;28;20203;-78
2023/07/25 11:12:34;;;;;;;20.38;13.65;;;23.20;99.90;;;;;;5073254;28;20228;-80
2023/07/25 11:15:01;;;;;;;9.75;7.13;;;23.00;99.90;;;;;;5069745;28;20208;-78
2023/07/25 11:17:28;;;;;;;1.98;1.45;;;22.90;99.90;;;;;;5062831;28;20300;-79
2023/07/25 11:20:10;;;;;;;3.03;1.00;;;23.00;99.90;;;;;;5051507;28;20670;-75
2023/07/25 11:22:38;;;;;;;2.53;0.80;;;22.90;99.90;;;;;;5061076;28;20204;-76
2023/07/25 11:25:08;;;;;;;0.75;0.50;;;22.90;99.90;;;;;;5070717;28;20219;-78
2023/07/25 11:27:41;;;;;;;1.33;0.80;;;22.90;99.90;;;;;;5070921;28;20228;-78
2023/07/25 11:30:16;;;;;;;3.10;0.77;;;22.80;99.90;;;;;;5070984;28;20223;-78
2023/07/25 11:32:48;;;;;;;3.00;0.73;;;22.80;99.90;;;;;;5071077;28;20204;-78
2023/07/25 11:35:15;;;;;;;2.10;0.70;;;22.70;99.90;;;;;;5055578;28;20201;-77
2023/07/25 11:37:47;;;;;;;2.60;0.80;;;22.60;99.90;;;;;;5071104;28;20214;-75
2023/07/25 11:40:19;;;;;;;1.67;0.80;;;22.70;99.90;;;;;;5050207;28;20296;-75
2023/07/25 11:42:48;;;;;;;1.90;0.60;;;22.70;99.90;;;;;;5032263;28;20223;-78
2023/07/25 11:45:17;;;;;;;1.13;0.55;;;22.80;99.90;;;;;;5063882;28;20301;-77
2023/07/25 11:47:49;;;;;;;4.47;1.10;;;22.80;99.90;;;;;;5070209;28;20496;-77
2023/07/25 11:50:16;;;;;;;2.60;0.60;;;22.80;99.90;;;;;;5056576;28;20238;-77
2023/07/25 11:52:55;;;;;;;1.55;0.70;;;22.90;99.90;;;;;;5064618;28;20297;-78
2023/07/25 11:55:22;;;;;;;1.02;0.60;;;23.00;99.90;;;;;;5060538;28;20575;-77
2023/07/25 11:57:49;;;;;;;1.10;0.60;;;23.20;99.90;;;;;;5070568;28;20311;-77
2023/07/25 12:00:16;;;;;;;1.48;0.75;;;23.10;99.90;;;;;;5070104;28;20243;-75
2023/07/25 12:02:43;;;;;;;1.33;0.50;;;23.00;99.90;;;;;;5069679;28;20257;-76
2023/07/25 12:05:26;;;;;;;0.77;0.60;;;23.20;99.90;;;;;;5070418;28;20720;-78
2023/07/25 12:08:02;;;;;;;1.38;0.45;;;23.30;99.90;;;;;;5062602;28;20264;-78
2023/07/25 12:10:34;;;;;;;1.20;0.70;;;23.20;99.90;;;;;;5065373;28;20223;-78
2023/07/25 12:13:03;;;;;;;0.85;0.77;;;22.90;99.90;;;;;;5070678;28;20228;-77
2023/07/25 12:15:43;;;;;;;1.42;0.60;;;22.70;99.90;;;;;;5069510;28;20212;-76
2023/07/25 12:18:30;;;;;;;0.93;0.50;;;22.70;99.90;;;;;;5051070;28;20630;-78
2023/07/25 12:21:00;;;;;;;1.55;0.65;;;22.60;99.90;;;;;;5067737;28;20209;-77
2023/07/25 12:23:38;;;;;;;2.30;0.57;;;22.60;99.90;;;;;;5024479;28;20347;-78
2023/07/25 12:26:07;;;;;;;0.55;0.55;;;22.50;99.90;;;;;;5059927;28;20208;-77
2023/07/25 12:28:41;;;;;;;2.50;0.80;;;22.40;99.90;;;;;;5069702;28;20259;-75
2023/07/25 12:31:08;;;;;;;0.93;0.70;;;22.30;99.90;;;;;;5069486;28;20200;-76
2023/07/25 12:33:36;;;;;;;1.10;0.68;;;22.20;99.90;;;;;;5069659;28;20741;-80
2023/07/25 12:36:04;;;;;;;2.45;0.80;;;22.20;99.90;;;;;;5063790;28;20200;-77
2023/07/25 12:38:31;;;;;;;2.45;0.70;;;22.20;99.90;;;;;;5046198;28;20211;-78
2023/07/25 12:40:58;;;;;;;3.88;0.82;;;22.10;99.90;;;;;;5046084;28;20210;-78
2023/07/25 12:43:25;;;;;;;3.22;0.73;;;22.10;99.90;;;;;;5047614;28;20696;-76
2023/07/25 12:45:52;;;;;;;0.75;0.70;;;22.40;99.90;;;;;;5043897;28;20206;-77
2023/07/25 12:48:19;;;;;;;2.17;0.75;;;22.70;99.90;;;;;;5050435;28;20612;-76
2023/07/25 12:50:45;;;;;;;1.33;0.90;;;23.00;99.90;;;;;;5048446;28;20201;-77
2023/07/25 12:53:12;;;;;;;1.35;0.70;;;23.00;99.90;;;;;;5033788;28;20205;-78